createdAt,value
2023-02-22T00:00:48.352Z,7.40
2023-02-22T00:02:10.559Z,7.30
2023-02-22T00:03:16.815Z,7.30
2023-02-22T00:04:21.526Z,7.30
2023-02-22T00:05:25.015Z,7.30
2023-02-22T00:06:29.544Z,7.30
2023-02-22T00:07:32.104Z,7.30
2023-02-22T00:08:38.428Z,7.30
2023-02-22T00:09:41.270Z,7.30
2023-02-22T00:10:45.733Z,7.20
2023-02-22T00:11:49.302Z,7.20
2023-02-22T00:12:54.257Z,7.20
2023-02-22T00:13:58.486Z,7.20
2023-02-22T00:15:02.141Z,7.20
2023-02-22T00:16:06.546Z,7.20
2023-02-22T00:17:13.325Z,7.20
2023-02-22T00:18:18.877Z,7.20
2023-02-22T00:19:22.643Z,7.20
2023-02-22T00:20:25.172Z,7.20
2023-02-22T00:21:31.210Z,7.20
2023-02-22T00:22:34.687Z,7.20
2023-02-22T00:23:43.354Z,7.10
2023-02-22T00:24:46.047Z,7.10
2023-02-22T00:25:51.561Z,7.10
2023-02-22T00:26:55.923Z,7.10
2023-02-22T00:27:59.696Z,7.10
2023-02-22T00:29:03.661Z,7.10
2023-02-22T00:30:27.175Z,7.10
2023-02-22T00:31:37.953Z,7.10
2023-02-22T00:32:41.837Z,7.10
2023-02-22T00:33:45.100Z,7.10
2023-02-22T00:34:52.205Z,7.10
2023-02-22T00:35:55.064Z,7.10
2023-02-22T00:37:02.901Z,7.10
2023-02-22T00:38:06.693Z,7.10
2023-02-22T00:39:10.275Z,7.10
2023-02-22T00:40:19.813Z,7.10
2023-02-22T00:41:23.938Z,7.10
2023-02-22T00:42:26.620Z,7.10
2023-02-22T00:43:35.599Z,7.00
2023-02-22T00:44:39.641Z,7.00
2023-02-22T00:45:44.552Z,7.00
2023-02-22T00:46:48.249Z,7.00
2023-02-22T00:47:51.945Z,7.00
2023-02-22T00:49:05.680Z,7.00
2023-02-22T00:50:10.290Z,7.00
2023-02-22T00:51:14.172Z,7.00
2023-02-22T00:52:17.273Z,7.00
2023-02-22T00:53:21.037Z,7.00
2023-02-22T00:54:23.799Z,6.90
2023-02-22T00:55:30.884Z,7.00
2023-02-22T00:56:34.324Z,6.90
2023-02-22T00:57:38.804Z,6.90
2023-02-22T00:58:41.440Z,6.90
2023-02-22T00:59:46.811Z,6.90
2023-02-22T01:00:50.126Z,6.90
2023-02-22T01:01:53.996Z,6.90
2023-02-22T01:02:57.196Z,6.90
2023-02-22T01:04:01.135Z,6.90
2023-02-22T01:05:03.952Z,6.90
2023-02-22T01:06:08.045Z,6.90
2023-02-22T01:07:10.704Z,6.90
2023-02-22T01:08:16.852Z,6.90
2023-02-22T01:09:19.755Z,6.90
2023-02-22T01:10:27.142Z,6.90
2023-02-22T01:11:30.691Z,6.90
2023-02-22T01:12:34.271Z,6.90
2023-02-22T01:13:38.309Z,6.90
2023-02-22T01:14:42.016Z,6.90
2023-02-22T01:15:47.082Z,6.90
2023-02-22T01:16:50.846Z,6.90
2023-02-22T01:17:55.934Z,6.90
2023-02-22T01:18:58.510Z,6.90
2023-02-22T01:20:02.267Z,6.90
2023-02-22T01:21:06.162Z,6.90
2023-02-22T01:22:09.854Z,6.90
2023-02-22T01:23:17.447Z,6.90
2023-02-22T01:24:21.359Z,6.90
2023-02-22T01:25:30.293Z,6.90
2023-02-22T01:26:34.184Z,6.90
2023-02-22T01:27:38.659Z,6.90
2023-02-22T01:28:42.455Z,6.90
2023-02-22T01:29:45.244Z,6.90
2023-02-22T01:30:50.330Z,6.90
2023-02-22T01:31:55.774Z,6.80
2023-02-22T01:32:59.630Z,6.80
2023-02-22T01:34:02.261Z,6.80
2023-02-22T01:35:09.281Z,6.80
2023-02-22T01:36:11.824Z,6.80
2023-02-22T01:37:15.483Z,6.80
2023-02-22T01:38:18.366Z,6.80
2023-02-22T01:39:22.382Z,6.80
2023-02-22T01:40:30.044Z,6.80
2023-02-22T01:41:34.076Z,6.80
2023-02-22T01:42:37.348Z,6.80
2023-02-22T01:43:41.033Z,6.80
2023-02-22T01:44:44.079Z,6.80
2023-02-22T01:46:01.792Z,6.80
2023-02-22T01:47:06.564Z,6.80
2023-02-22T01:48:14.532Z,6.80
2023-02-22T01:49:18.377Z,6.80
2023-02-22T01:50:21.425Z,6.80
2023-02-22T01:51:31.157Z,6.70
2023-02-22T01:52:33.841Z,6.70
2023-02-22T01:53:44.511Z,6.70
2023-02-22T01:54:52.784Z,6.70
2023-02-22T01:55:58.771Z,6.70
2023-02-22T01:57:16.370Z,6.70
2023-02-22T01:58:22.189Z,6.70
2023-02-22T01:59:25.090Z,6.70
2023-02-22T02:00:30.722Z,6.70
2023-02-22T02:01:37.612Z,6.70
2023-02-22T02:02:44.294Z,6.70
2023-02-22T02:03:49.429Z,6.70
2023-02-22T02:04:54.224Z,6.60
2023-02-22T02:06:02.598Z,6.60
2023-02-22T02:07:08.982Z,6.60
2023-02-22T02:08:25.876Z,6.60
2023-02-22T02:09:39.968Z,6.60
2023-02-22T02:10:44.099Z,6.60
2023-02-22T02:11:48.457Z,6.50
2023-02-22T02:12:53.416Z,6.50
2023-02-22T02:14:00.115Z,6.50
2023-02-22T02:15:25.195Z,6.50
2023-02-22T02:16:40.185Z,6.50
2023-02-22T02:17:43.610Z,6.50
2023-02-22T02:18:47.997Z,6.50
2023-02-22T02:20:02.125Z,6.50
2023-02-22T02:21:44.939Z,6.50
2023-02-22T02:22:56.070Z,6.50
2023-02-22T02:24:42.044Z,6.50
2023-02-22T02:26:09.855Z,6.50
2023-02-22T02:27:23.025Z,6.50
2023-02-22T02:29:12.611Z,6.50
2023-02-22T02:31:06.125Z,6.50
2023-02-22T02:32:40.811Z,6.40
2023-02-22T02:33:50.534Z,6.40
2023-02-22T02:35:04.510Z,6.40
2023-02-22T02:36:16.708Z,6.40
2023-02-22T02:37:30.473Z,6.40
2023-02-22T02:38:40.191Z,6.40
2023-02-22T02:39:54.772Z,6.30
2023-02-22T02:41:07.460Z,6.30
2023-02-22T02:42:18.324Z,6.30
2023-02-22T02:43:31.430Z,6.30
2023-02-22T02:44:42.770Z,6.30
2023-02-22T02:46:00.344Z,6.30
2023-02-22T02:47:08.180Z,6.30
2023-02-22T02:48:16.078Z,6.30
2023-02-22T02:49:26.534Z,6.30
2023-02-22T02:50:33.702Z,6.30
2023-02-22T02:51:45.492Z,6.30
2023-02-22T02:52:49.448Z,6.20
2023-02-22T02:53:54.877Z,6.20
2023-02-22T02:55:00.993Z,6.20
2023-02-22T02:56:05.269Z,6.20
2023-02-22T02:57:09.456Z,6.20
2023-02-22T02:58:20.954Z,6.20
2023-02-22T02:59:29.823Z,6.20
2023-02-22T03:00:39.588Z,6.10
2023-02-22T03:01:58.208Z,6.10
2023-02-22T03:03:27.351Z,6.10
2023-02-22T03:04:48.996Z,6.10
2023-02-22T03:06:13.644Z,6.10
2023-02-22T03:07:38.791Z,6.10
2023-02-22T03:08:50.510Z,6.10
2023-02-22T03:10:32.316Z,6.00
2023-02-22T03:11:48.372Z,6.10
2023-02-22T03:13:07.651Z,6.00
2023-02-22T03:14:23.139Z,6.00
2023-02-22T03:15:41.490Z,6.00
2023-02-22T03:16:52.108Z,6.00
2023-02-22T03:18:02.706Z,6.00
2023-02-22T03:19:14.152Z,6.00
2023-02-22T03:20:31.667Z,6.00
2023-02-22T03:21:48.042Z,6.00
2023-02-22T03:22:59.112Z,5.90
2023-02-22T03:24:10.386Z,5.90
2023-02-22T03:25:18.432Z,5.90
2023-02-22T03:26:28.582Z,5.90
2023-02-22T03:27:43.768Z,5.90
2023-02-22T03:28:50.586Z,5.90
2023-02-22T03:30:00.489Z,5.90
2023-02-22T03:31:11.675Z,5.90
2023-02-22T03:32:22.833Z,5.90
2023-02-22T03:33:36.403Z,5.80
2023-02-22T03:34:46.121Z,5.80
2023-02-22T03:36:00.723Z,5.80
2023-02-22T03:37:08.718Z,5.80
2023-02-22T03:38:19.201Z,5.80
2023-02-22T03:39:30.947Z,5.80
2023-02-22T03:40:43.519Z,5.80
2023-02-22T03:41:51.586Z,5.80
2023-02-22T03:43:03.593Z,5.80
2023-02-22T03:44:13.985Z,5.80
2023-02-22T03:45:19.748Z,5.80
2023-02-22T03:46:24.876Z,5.80
2023-02-22T03:47:35.438Z,5.80
2023-02-22T03:48:49.739Z,5.80
2023-02-22T03:49:57.946Z,5.70
2023-02-22T03:51:04.492Z,5.70
2023-02-22T03:52:09.157Z,5.70
2023-02-22T03:53:14.560Z,5.70
2023-02-22T03:54:18.259Z,5.70
2023-02-22T03:55:23.920Z,5.70
2023-02-22T03:56:35.924Z,5.70
2023-02-22T03:57:44.810Z,5.70
2023-02-22T03:58:49.419Z,5.70
2023-02-22T03:59:53.256Z,5.70
2023-02-22T04:00:56.726Z,5.70
2023-02-22T04:02:00.276Z,5.70
2023-02-22T04:03:04.241Z,5.60
2023-02-22T04:04:07.966Z,5.60
2023-02-22T04:05:14.468Z,5.60
2023-02-22T04:06:18.573Z,5.60
2023-02-22T04:07:21.682Z,5.60
2023-02-22T04:08:25.975Z,5.60
2023-02-22T04:09:29.148Z,5.60
2023-02-22T04:10:33.579Z,5.60
2023-02-22T04:11:36.240Z,5.60
2023-02-22T04:12:40.528Z,5.60
2023-02-22T04:13:43.628Z,5.60
2023-02-22T04:14:47.539Z,5.60
2023-02-22T04:15:50.274Z,5.50
2023-02-22T04:16:54.457Z,5.60
2023-02-22T04:17:58.159Z,5.50
2023-02-22T04:19:01.938Z,5.50
2023-02-22T04:20:06.781Z,5.50
2023-02-22T04:21:21.155Z,5.50
2023-02-22T04:22:25.637Z,5.50
2023-02-22T04:23:29.810Z,5.50
2023-02-22T04:24:33.872Z,5.50
2023-02-22T04:25:37.369Z,5.50
2023-02-22T04:26:46.764Z,5.50
2023-02-22T04:27:51.047Z,5.50
2023-02-22T04:28:57.572Z,5.50
2023-02-22T04:30:05.904Z,5.50
2023-02-22T04:31:10.247Z,5.50
2023-02-22T04:32:14.588Z,5.50
2023-02-22T04:33:17.352Z,5.50
2023-02-22T04:34:20.849Z,5.50
2023-02-22T04:35:24.181Z,5.50
2023-02-22T04:36:31.910Z,5.60
2023-02-22T04:37:37.266Z,5.60
2023-02-22T04:38:42.141Z,5.60
2023-02-22T04:39:45.744Z,5.60
2023-02-22T04:40:48.627Z,5.60
2023-02-22T04:41:52.640Z,5.60
2023-02-22T04:42:55.319Z,5.60
2023-02-22T04:43:59.070Z,5.60
2023-02-22T04:45:09.892Z,5.60
2023-02-22T04:46:14.121Z,5.60
2023-02-22T04:47:16.937Z,5.60
2023-02-22T04:48:20.825Z,5.60
2023-02-22T04:49:23.790Z,5.50
2023-02-22T04:50:29.237Z,5.60
2023-02-22T04:51:33.427Z,5.60
2023-02-22T04:52:43.136Z,5.50
2023-02-22T04:53:47.079Z,5.50
2023-02-22T04:54:50.876Z,5.50
2023-02-22T04:55:54.472Z,5.50
2023-02-22T04:56:58.845Z,5.50
2023-02-22T04:58:01.849Z,5.50
2023-02-22T04:59:05.418Z,5.50
2023-02-22T05:00:10.544Z,5.50
2023-02-22T05:01:15.728Z,5.50
2023-02-22T05:02:19.891Z,5.50
2023-02-22T05:03:23.596Z,5.50
2023-02-22T05:04:26.482Z,5.50
2023-02-22T05:05:30.219Z,5.50
2023-02-22T05:06:34.546Z,5.50
2023-02-22T05:07:38.343Z,5.50
2023-02-22T05:08:41.022Z,5.50
2023-02-22T05:09:45.335Z,5.50
2023-02-22T05:10:47.987Z,5.50
2023-02-22T05:11:51.680Z,5.50
2023-02-22T05:12:54.578Z,5.50
2023-02-22T05:13:58.223Z,5.50
2023-02-22T05:15:00.772Z,5.50
2023-02-22T05:16:04.991Z,5.50
2023-02-22T05:17:07.598Z,5.50
2023-02-22T05:18:11.183Z,5.50
2023-02-22T05:19:13.849Z,5.50
2023-02-22T05:20:27.922Z,5.50
2023-02-22T05:21:30.782Z,5.50
2023-02-22T05:22:36.583Z,5.50
2023-02-22T05:23:39.399Z,5.50
2023-02-22T05:24:44.070Z,5.50
2023-02-22T05:25:46.752Z,5.50
2023-02-22T05:26:51.337Z,5.50
2023-02-22T05:27:57.444Z,5.50
2023-02-22T05:29:01.024Z,5.50
2023-02-22T05:30:04.307Z,5.50
2023-02-22T05:31:08.249Z,5.50
2023-02-22T05:32:12.340Z,5.50
2023-02-22T05:33:15.987Z,5.50
2023-02-22T05:34:18.618Z,5.50
2023-02-22T05:35:23.869Z,5.50
2023-02-22T05:36:28.139Z,5.50
2023-02-22T05:37:30.850Z,5.50
2023-02-22T05:38:43.217Z,5.50
2023-02-22T05:39:46.560Z,5.50
2023-02-22T05:40:50.787Z,5.50
2023-02-22T05:41:53.470Z,5.50
2023-02-22T05:42:58.241Z,5.50
2023-02-22T05:44:02.956Z,5.50
2023-02-22T05:45:07.924Z,5.50
2023-02-22T05:46:10.786Z,5.50
2023-02-22T05:47:14.801Z,5.50
2023-02-22T05:48:17.429Z,5.50
2023-02-22T05:49:21.255Z,5.50
2023-02-22T05:50:24.742Z,5.50
2023-02-22T05:51:28.623Z,5.50
2023-02-22T05:52:31.160Z,5.50
2023-02-22T05:53:36.845Z,5.50
2023-02-22T05:54:39.405Z,5.40
2023-02-22T05:55:44.022Z,5.40
2023-02-22T05:56:48.089Z,5.40
2023-02-22T05:57:52.900Z,5.40
2023-02-22T05:58:56.222Z,5.40
2023-02-22T05:59:59.783Z,5.40
2023-02-22T06:01:03.669Z,5.40
2023-02-22T06:02:06.304Z,5.40
2023-02-22T06:03:12.659Z,5.40
2023-02-22T06:04:17.937Z,5.40
2023-02-22T06:05:21.849Z,5.40
2023-02-22T06:06:24.448Z,5.40
2023-02-22T06:07:28.137Z,5.40
2023-02-22T06:08:30.781Z,5.40
2023-02-22T06:09:35.773Z,5.40
2023-02-22T06:10:39.440Z,5.40
2023-02-22T06:11:43.301Z,5.40
2023-02-22T06:12:46.283Z,5.40
2023-02-22T06:13:54.102Z,5.40
2023-02-22T06:14:56.967Z,5.40
2023-02-22T06:16:00.469Z,5.40
2023-02-22T06:17:03.736Z,5.40
2023-02-22T06:18:07.405Z,5.40
2023-02-22T06:19:09.944Z,5.40
2023-02-22T06:20:17.127Z,5.40
2023-02-22T06:21:20.074Z,5.40
2023-02-22T06:22:23.676Z,5.40
2023-02-22T06:23:27.708Z,5.40
2023-02-22T06:24:31.289Z,5.40
2023-02-22T06:25:35.413Z,5.40
2023-02-22T06:26:39.005Z,5.40
2023-02-22T06:27:41.640Z,5.40
2023-02-22T06:28:45.341Z,5.40
2023-02-22T06:29:48.424Z,5.40
2023-02-22T06:30:54.211Z,5.40
2023-02-22T06:31:58.520Z,5.40
2023-02-22T06:33:06.144Z,5.40
2023-02-22T06:34:09.117Z,5.40
2023-02-22T06:35:14.898Z,5.40
2023-02-22T06:36:21.587Z,5.40
2023-02-22T06:37:36.315Z,5.40
2023-02-22T06:38:42.797Z,5.40
2023-02-22T06:39:47.475Z,5.40
2023-02-22T06:40:52.681Z,5.40
2023-02-22T06:41:58.073Z,5.40
2023-02-22T06:43:02.620Z,5.40
2023-02-22T06:44:07.674Z,5.40
2023-02-22T06:45:11.199Z,5.40
2023-02-22T06:46:16.404Z,5.40
2023-02-22T06:47:20.091Z,5.40
2023-02-22T06:48:24.779Z,5.40
2023-02-22T06:49:28.669Z,5.40
2023-02-22T06:50:35.980Z,5.40
2023-02-22T06:51:39.946Z,5.40
2023-02-22T06:52:45.259Z,5.40
2023-02-22T06:53:48.768Z,5.40
2023-02-22T06:54:53.764Z,5.40
2023-02-22T06:56:00.896Z,5.40
2023-02-22T06:57:06.214Z,5.40
2023-02-22T06:58:11.942Z,5.40
2023-02-22T06:59:16.186Z,5.40
2023-02-22T07:00:23.336Z,5.40
2023-02-22T07:01:27.092Z,5.40
2023-02-22T07:02:32.465Z,5.40
2023-02-22T07:03:38.013Z,5.40
2023-02-22T07:04:43.558Z,5.40
2023-02-22T07:05:48.700Z,5.40
2023-02-22T07:06:52.589Z,5.40
2023-02-22T07:08:05.832Z,5.40
2023-02-22T07:09:09.579Z,5.40
2023-02-22T07:10:20.944Z,5.40
2023-02-22T07:11:27.883Z,5.40
2023-02-22T07:12:33.382Z,5.40
2023-02-22T07:13:40.020Z,5.40
2023-02-22T07:14:44.308Z,5.40
2023-02-22T07:15:49.992Z,5.50
2023-02-22T07:16:53.848Z,5.50
2023-02-22T07:17:59.674Z,5.50
2023-02-22T07:19:04.978Z,5.50
2023-02-22T07:20:12.740Z,5.50
2023-02-22T07:21:19.561Z,5.50
2023-02-22T07:22:23.723Z,5.50
2023-02-22T07:23:28.801Z,5.60
2023-02-22T07:24:35.607Z,5.60
2023-02-22T07:25:40.948Z,5.60
2023-02-22T07:26:46.002Z,5.60
2023-02-22T07:27:52.928Z,5.60
2023-02-22T07:28:56.121Z,5.60
2023-02-22T07:30:02.526Z,5.60
2023-02-22T07:31:07.900Z,5.60
2023-02-22T07:32:13.243Z,5.60
2023-02-22T07:33:17.816Z,5.60
2023-02-22T07:34:23.280Z,5.60
2023-02-22T07:35:29.560Z,5.60
2023-02-22T07:36:35.195Z,5.70
2023-02-22T07:37:39.688Z,5.70
2023-02-22T07:38:45.013Z,5.70
2023-02-22T07:39:48.925Z,5.70
2023-02-22T07:40:54.362Z,5.70
2023-02-22T07:41:59.655Z,5.70
2023-02-22T07:43:15.508Z,5.70
2023-02-22T07:44:19.639Z,5.70
2023-02-22T07:45:25.961Z,5.80
2023-02-22T07:46:33.297Z,5.80
2023-02-22T07:47:37.981Z,5.80
2023-02-22T07:48:42.865Z,5.80
2023-02-22T07:49:46.560Z,5.80
2023-02-22T07:50:52.219Z,5.80
2023-02-22T07:51:55.840Z,5.80
2023-02-22T07:53:03.117Z,5.80
2023-02-22T07:54:07.332Z,5.80
2023-02-22T07:55:13.000Z,5.80
2023-02-22T07:56:18.547Z,5.80
2023-02-22T07:57:24.262Z,5.80
2023-02-22T07:58:33.808Z,5.80
2023-02-22T07:59:38.093Z,5.80
2023-02-22T08:00:44.222Z,5.80
2023-02-22T08:01:52.084Z,5.80
2023-02-22T08:02:57.242Z,5.80
2023-02-22T08:04:02.279Z,5.90
2023-02-22T08:05:07.425Z,5.80
2023-02-22T08:06:11.184Z,5.90
2023-02-22T08:07:13.969Z,5.90
2023-02-22T08:08:19.854Z,5.90
2023-02-22T08:09:23.720Z,5.90
2023-02-22T08:10:27.981Z,5.90
2023-02-22T08:11:30.611Z,5.90
2023-02-22T08:12:36.228Z,5.90
2023-02-22T08:13:40.930Z,5.90
2023-02-22T08:14:43.542Z,5.90
2023-02-22T08:15:47.606Z,6.00
2023-02-22T08:16:51.240Z,6.00
2023-02-22T08:17:54.185Z,6.00
2023-02-22T08:18:57.753Z,6.00
2023-02-22T08:20:00.574Z,6.00
2023-02-22T08:21:04.242Z,6.00
2023-02-22T08:22:06.988Z,6.00
2023-02-22T08:23:12.665Z,6.00
2023-02-22T08:24:16.338Z,6.00
2023-02-22T08:25:20.894Z,6.00
2023-02-22T08:26:25.516Z,6.10
2023-02-22T08:27:30.798Z,6.10
2023-02-22T08:28:36.546Z,6.10
2023-02-22T08:29:39.253Z,6.10
2023-02-22T08:30:44.033Z,6.20
2023-02-22T08:31:54.270Z,6.20
2023-02-22T08:32:58.543Z,6.20
2023-02-22T08:34:02.281Z,6.20
2023-02-22T08:35:06.466Z,6.20
2023-02-22T08:36:10.776Z,6.20
2023-02-22T08:37:14.074Z,6.30
2023-02-22T08:38:21.696Z,6.30
2023-02-22T08:39:24.522Z,6.30
2023-02-22T08:40:37.827Z,6.30
2023-02-22T08:41:40.904Z,6.30
2023-02-22T08:42:44.624Z,6.30
2023-02-22T08:43:49.690Z,6.30
2023-02-22T08:44:52.458Z,6.40
2023-02-22T08:45:57.687Z,6.40
2023-02-22T08:47:00.633Z,6.40
2023-02-22T08:48:04.619Z,6.40
2023-02-22T08:49:08.977Z,6.40
2023-02-22T08:50:19.078Z,6.40
2023-02-22T08:51:23.204Z,6.40
2023-02-22T08:52:25.862Z,6.40
2023-02-22T08:53:30.300Z,6.40
2023-02-22T08:54:33.325Z,6.50
2023-02-22T08:55:42.215Z,6.50
2023-02-22T08:56:46.374Z,6.50
2023-02-22T08:57:49.175Z,6.50
2023-02-22T08:58:54.127Z,6.50
2023-02-22T08:59:56.818Z,6.60
2023-02-22T09:01:00.407Z,6.60
2023-02-22T09:02:03.354Z,6.60
2023-02-22T09:03:09.410Z,6.60
2023-02-22T09:04:13.139Z,6.70
2023-02-22T09:05:17.187Z,6.70
2023-02-22T09:06:21.037Z,6.70
2023-02-22T09:07:25.366Z,6.70
2023-02-22T09:08:29.171Z,6.80
2023-02-22T09:09:31.873Z,6.80
2023-02-22T09:10:37.181Z,6.80
2023-02-22T09:11:39.912Z,6.90
2023-02-22T09:12:43.923Z,6.90
2023-02-22T09:13:47.673Z,6.90
2023-02-22T09:14:51.866Z,7.00
2023-02-22T09:15:55.477Z,7.00
2023-02-22T09:16:58.361Z,7.10
2023-02-22T09:18:02.473Z,7.10
2023-02-22T09:19:06.187Z,7.20
2023-02-22T09:20:11.952Z,7.20
2023-02-22T09:21:16.105Z,7.30
2023-02-22T09:22:19.201Z,7.40
2023-02-22T09:23:24.119Z,7.50
2023-02-22T09:24:27.593Z,7.50
2023-02-22T09:25:31.618Z,7.60
2023-02-22T09:26:34.781Z,7.60
2023-02-22T09:27:40.331Z,7.70
2023-02-22T09:28:43.085Z,7.70
2023-02-22T09:29:51.424Z,7.80
2023-02-22T09:30:55.415Z,7.90
2023-02-22T09:31:58.381Z,7.90
2023-02-22T09:33:04.709Z,8.00
2023-02-22T09:34:13.987Z,8.00
2023-02-22T09:35:17.036Z,8.10
2023-02-22T09:36:21.948Z,8.10
2023-02-22T09:37:24.717Z,8.20
2023-02-22T09:38:30.268Z,8.30
2023-02-22T09:39:37.684Z,8.30
2023-02-22T09:40:52.087Z,8.40
2023-02-22T09:42:03.675Z,8.50
2023-02-22T09:43:28.632Z,8.60
2023-02-22T09:44:43.054Z,8.70
2023-02-22T09:46:19.326Z,8.80
2023-02-22T09:47:32.547Z,8.90
2023-02-22T09:48:41.430Z,9.00
2023-02-22T09:49:57.673Z,9.10
2023-02-22T09:51:06.738Z,9.10
2023-02-22T09:52:18.899Z,9.20
2023-02-22T09:53:30.656Z,9.20
2023-02-22T09:54:40.901Z,9.20
2023-02-22T09:55:49.833Z,9.30
2023-02-22T09:56:59.465Z,9.30
2023-02-22T09:58:08.458Z,9.40
2023-02-22T09:59:18.844Z,9.40
2023-02-22T10:00:32.676Z,9.50
2023-02-22T10:01:44.129Z,9.60
2023-02-22T10:02:55.798Z,9.60
2023-02-22T10:04:06.972Z,9.70
2023-02-22T10:05:16.154Z,9.70
2023-02-22T10:06:22.558Z,9.70
2023-02-22T10:07:33.450Z,9.70
2023-02-22T10:08:38.751Z,9.70
2023-02-22T10:09:44.643Z,9.70
2023-02-22T10:10:55.506Z,9.70
2023-02-22T10:12:02.150Z,9.70
2023-02-22T10:13:20.439Z,9.60
2023-02-22T10:15:25.574Z,9.60
2023-02-22T10:16:37.534Z,9.50
2023-02-22T10:17:54.926Z,9.50
2023-02-22T10:19:17.994Z,9.50
2023-02-22T10:20:41.038Z,9.50
2023-02-22T10:22:33.015Z,9.40
2023-02-22T10:23:49.501Z,9.40
2023-02-22T10:25:01.232Z,9.40
2023-02-22T10:26:16.664Z,9.40
2023-02-22T10:27:29.385Z,9.40
2023-02-22T10:28:41.747Z,9.50
2023-02-22T10:29:49.480Z,9.50
2023-02-22T10:30:57.042Z,9.50
2023-02-22T10:32:04.299Z,9.50
2023-02-22T10:33:17.039Z,9.50
2023-02-22T10:34:26.050Z,9.50
2023-02-22T10:35:35.400Z,9.50
2023-02-22T10:36:39.289Z,9.50
2023-02-22T10:37:41.976Z,9.50
2023-02-22T10:38:52.871Z,9.50
2023-02-22T10:40:05.424Z,9.50
2023-02-22T10:41:24.359Z,9.50
2023-02-22T10:42:28.261Z,9.50
2023-02-22T10:43:33.425Z,9.50
2023-02-22T10:44:37.779Z,9.60
2023-02-22T10:45:41.655Z,9.60
2023-02-22T10:46:47.634Z,9.60
2023-02-22T10:47:55.004Z,9.60
2023-02-22T10:49:08.256Z,9.60
2023-02-22T10:50:15.173Z,9.70
2023-02-22T10:51:19.227Z,9.70
2023-02-22T10:52:29.978Z,9.70
2023-02-22T10:53:37.997Z,9.80
2023-02-22T10:54:45.529Z,9.80
2023-02-22T10:56:16.196Z,9.90
2023-02-22T10:57:25.707Z,9.90
2023-02-22T10:58:28.991Z,10.00
2023-02-22T10:59:35.857Z,10.00
2023-02-22T11:00:42.404Z,10.00
2023-02-22T11:01:45.627Z,10.10
2023-02-22T11:02:55.294Z,10.10
2023-02-22T11:04:05.715Z,10.10
2023-02-22T11:05:31.114Z,10.20
2023-02-22T11:06:35.384Z,10.30
2023-02-22T11:07:39.086Z,10.30
2023-02-22T11:08:41.837Z,10.30
2023-02-22T11:09:51.868Z,10.40
2023-02-22T11:10:58.796Z,10.40
2023-02-22T11:12:17.595Z,10.40
2023-02-22T11:13:37.900Z,10.40
2023-02-22T11:14:40.551Z,10.50
2023-02-22T11:15:44.938Z,10.50
2023-02-22T11:16:52.927Z,10.50
2023-02-22T11:18:01.502Z,10.50
2023-02-22T11:19:20.842Z,10.60
2023-02-22T11:20:25.739Z,10.60
2023-02-22T11:21:33.445Z,10.60
2023-02-22T11:22:42.241Z,10.60
2023-02-22T11:23:45.170Z,10.60
2023-02-22T11:26:07.985Z,10.70
2023-02-22T11:27:22.898Z,10.70
2023-02-22T11:28:33.055Z,10.80
2023-02-22T11:29:38.695Z,10.80
2023-02-22T11:30:44.613Z,10.90
2023-02-22T11:31:50.476Z,10.90
2023-02-22T11:32:56.717Z,11.00
2023-02-22T11:34:03.319Z,11.00
2023-02-22T11:35:32.802Z,11.00
2023-02-22T11:36:40.952Z,11.00
2023-02-22T11:37:44.778Z,11.00
2023-02-22T11:38:59.662Z,11.00
2023-02-22T11:40:13.841Z,11.00
2023-02-22T11:41:22.080Z,11.00
2023-02-22T11:42:27.746Z,11.00
2023-02-22T11:43:31.443Z,11.00
2023-02-22T11:44:34.335Z,11.00
2023-02-22T11:45:42.000Z,11.00
2023-02-22T11:46:47.546Z,11.00
2023-02-22T11:47:57.566Z,11.00
2023-02-22T11:49:04.644Z,11.00
2023-02-22T11:50:18.515Z,11.00
2023-02-22T11:51:40.132Z,11.00
2023-02-22T11:52:50.216Z,11.00
2023-02-22T11:54:19.529Z,11.00
2023-02-22T11:55:42.376Z,10.90
2023-02-22T11:56:50.235Z,10.90
2023-02-22T11:58:08.445Z,10.90
2023-02-22T11:59:27.946Z,10.90
2023-02-22T12:00:47.138Z,10.90
2023-02-22T12:01:55.963Z,10.90
2023-02-22T12:03:31.677Z,10.90
2023-02-22T12:05:13.489Z,10.80
2023-02-22T12:06:40.277Z,10.80
2023-02-22T12:08:10.747Z,10.80
2023-02-22T12:09:34.522Z,10.80
2023-02-22T12:10:55.575Z,10.80
2023-02-22T12:12:14.562Z,10.90
2023-02-22T12:13:36.856Z,10.90
2023-02-22T12:14:54.943Z,10.90
2023-02-22T12:16:13.024Z,11.00
2023-02-22T12:17:31.030Z,11.00
2023-02-22T12:18:42.092Z,11.00
2023-02-22T12:19:51.153Z,11.00
2023-02-22T12:20:59.400Z,11.10
2023-02-22T12:22:08.904Z,11.10
2023-02-22T12:23:21.544Z,11.10
2023-02-22T12:24:30.768Z,11.10
2023-02-22T12:25:38.957Z,11.20
2023-02-22T12:26:45.004Z,11.20
2023-02-22T12:27:54.441Z,11.20
2023-02-22T12:29:06.119Z,11.30
2023-02-22T12:30:18.269Z,11.30
2023-02-22T12:31:29.784Z,11.30
2023-02-22T12:32:42.138Z,11.30
2023-02-22T12:33:55.579Z,11.40
2023-02-22T12:35:05.826Z,11.40
2023-02-22T12:36:16.074Z,11.40
2023-02-22T12:37:29.049Z,11.40
2023-02-22T12:38:37.436Z,11.40
2023-02-22T12:39:54.370Z,11.40
2023-02-22T12:41:08.926Z,11.40
2023-02-22T12:42:19.211Z,11.40
2023-02-22T12:43:30.330Z,11.40
2023-02-22T12:44:40.046Z,11.40
2023-02-22T12:45:50.373Z,11.50
2023-02-22T12:46:57.685Z,11.50
2023-02-22T12:48:26.374Z,11.50
2023-02-22T12:49:32.707Z,11.50
2023-02-22T12:50:37.855Z,11.60
2023-02-22T12:51:49.971Z,11.60
2023-02-22T12:53:03.489Z,11.60
2023-02-22T12:54:13.678Z,11.60
2023-02-22T12:55:25.059Z,11.60
2023-02-22T12:56:35.671Z,11.60
2023-02-22T12:57:45.636Z,11.60
2023-02-22T12:58:59.029Z,11.60
2023-02-22T13:00:11.404Z,11.60
2023-02-22T13:01:20.516Z,11.60
2023-02-22T13:02:32.246Z,11.60
2023-02-22T13:03:39.142Z,11.60
2023-02-22T13:04:41.991Z,11.60
2023-02-22T13:05:48.469Z,11.60
2023-02-22T13:07:09.361Z,11.60
2023-02-22T13:08:28.367Z,11.60
2023-02-22T13:09:57.874Z,11.60
2023-02-22T13:11:16.634Z,11.60
2023-02-22T13:12:24.552Z,11.50
2023-02-22T13:13:43.948Z,11.50
2023-02-22T13:15:03.300Z,11.60
2023-02-22T13:16:22.585Z,11.50
2023-02-22T13:17:38.828Z,11.60
2023-02-22T13:18:50.794Z,11.50
2023-02-22T13:20:02.199Z,11.60
2023-02-22T13:21:17.825Z,11.60
2023-02-22T13:22:30.733Z,11.60
2023-02-22T13:23:47.250Z,11.60
2023-02-22T13:25:07.360Z,11.60
2023-02-22T13:26:19.211Z,11.60
2023-02-22T13:27:28.992Z,11.60
2023-02-22T13:28:39.902Z,11.60
2023-02-22T13:29:47.515Z,11.60
2023-02-22T13:31:09.106Z,11.60
2023-02-22T13:32:31.417Z,11.60
2023-02-22T13:33:54.733Z,11.60
2023-02-22T13:35:35.775Z,11.60
2023-02-22T13:36:53.050Z,11.60
2023-02-22T13:38:46.942Z,11.60
2023-02-22T13:40:22.584Z,11.70
2023-02-22T13:41:59.976Z,11.70
2023-02-22T13:43:37.959Z,11.70
2023-02-22T13:45:47.331Z,11.70
2023-02-22T13:47:33.458Z,11.70
2023-02-22T13:49:18.969Z,11.60
2023-02-22T13:50:48.602Z,11.60
2023-02-22T13:51:55.797Z,11.60
2023-02-22T13:53:01.130Z,11.60
2023-02-22T13:54:15.121Z,11.60
2023-02-22T13:55:26.270Z,11.50
2023-02-22T13:56:31.134Z,11.50
2023-02-22T13:57:41.206Z,11.50
2023-02-22T13:58:57.047Z,11.50
2023-02-22T14:00:25.950Z,11.50
2023-02-22T14:01:41.516Z,11.50
2023-02-22T14:03:08.307Z,11.50
2023-02-22T14:04:33.550Z,11.40
2023-02-22T14:05:53.957Z,11.40
2023-02-22T14:07:26.154Z,11.40
2023-02-22T14:08:46.871Z,11.40
2023-02-22T14:09:53.376Z,11.30
2023-02-22T14:10:59.167Z,11.30
2023-02-22T14:12:02.121Z,11.30
2023-02-22T14:13:07.904Z,11.30
2023-02-22T14:14:14.683Z,11.30
2023-02-22T14:15:30.933Z,11.30
2023-02-22T14:16:35.992Z,11.20
2023-02-22T14:17:40.896Z,11.20
2023-02-22T14:18:47.366Z,11.10
2023-02-22T14:20:14.983Z,11.10
2023-02-22T14:21:20.873Z,11.10
2023-02-22T14:22:27.824Z,11.00
2023-02-22T14:23:37.973Z,11.00
2023-02-22T14:24:45.899Z,11.00
2023-02-22T14:25:51.891Z,11.00
2023-02-22T14:27:05.611Z,10.90
2023-02-22T14:28:31.392Z,10.90
2023-02-22T14:29:35.763Z,10.90
2023-02-22T14:30:40.182Z,10.90
2023-02-22T14:32:07.746Z,10.80
2023-02-22T14:33:52.363Z,10.80
2023-02-22T14:35:00.861Z,10.80
2023-02-22T14:36:05.089Z,10.80
2023-02-22T14:37:13.908Z,10.80
2023-02-22T14:38:20.973Z,10.80
2023-02-22T14:39:34.493Z,10.80
2023-02-22T14:40:39.984Z,10.80
2023-02-22T14:41:51.385Z,10.80
2023-02-22T14:43:04.828Z,10.70
2023-02-22T14:44:12.950Z,10.70
2023-02-22T14:45:27.379Z,10.70
2023-02-22T14:46:40.703Z,10.70
2023-02-22T14:47:54.467Z,10.70
2023-02-22T14:49:02.049Z,10.70
2023-02-22T14:50:11.996Z,10.70
2023-02-22T14:51:22.736Z,10.70
2023-02-22T14:52:31.730Z,10.70
2023-02-22T14:53:44.461Z,10.70
2023-02-22T14:55:04.487Z,10.70
2023-02-22T14:56:23.165Z,10.70
2023-02-22T14:57:39.075Z,10.70
2023-02-22T14:58:47.063Z,10.70
2023-02-22T15:00:10.928Z,10.70
2023-02-22T15:01:34.002Z,10.70
2023-02-22T15:02:43.022Z,10.70
2023-02-22T15:03:51.409Z,10.70
2023-02-22T15:04:57.906Z,10.70
2023-02-22T15:06:07.642Z,10.70
2023-02-22T15:07:27.719Z,10.70
2023-02-22T15:08:34.197Z,10.70
2023-02-22T15:09:38.029Z,10.70
2023-02-22T15:10:44.082Z,10.60